JFA86H / LX-PCB 7700 Squawk Report (18th of June, 2019)

Time Lat Lon Altitude Heading Speed Vertical Rate
2019-06-18 16:31:09 GMT 48.964527 2.422847 300 67 109 -576
2019-06-18 16:31:02 GMT 48.963085 2.417498 350 67 106 -512
2019-06-18 16:30:51 GMT 48.961082 2.410053 450 67 104 -512
2019-06-18 16:30:44 GMT 48.959656 2.404738 525 67 107 -576
2019-06-18 16:30:39 GMT 48.958923 2.402132 550 68 112 -576
2019-06-18 16:30:36 GMT 48.957733 2.397766 625 67 114 -960
2019-06-18 16:30:29 GMT 48.956909 2.394597 675 68 115 -640
2019-06-18 16:30:22 GMT 48.955490 2.389104 725 68 117 -448
2019-06-18 16:30:19 GMT 48.954803 2.386498 775 67 117 -704
2019-06-18 16:30:12 GMT 48.953217 2.380781 850 67 113 -576
2019-06-18 16:30:06 GMT 48.952148 2.376850 875 67 112 -512
2019-06-18 16:30:01 GMT 48.950867 2.372131 950 68 109 -448
2019-06-18 16:29:54 GMT 48.949951 2.368681 975 67 108 -512
2019-06-18 16:29:49 GMT 48.948807 2.364385 1,025 67 106 -576
2019-06-18 16:29:45 GMT 48.948166 2.361990 1,075 67 108 -448
2019-06-18 16:29:38 GMT 48.946518 2.356074 1,150 67 113 -768
2019-06-18 16:29:34 GMT 48.945969 2.354032 1,200 69 114 -704
2019-06-18 16:29:29 GMT 48.944916 2.349807 1,250 68 114 -704
2019-06-18 16:29:24 GMT 48.944000 2.346426 1,275 67 120 -320
2019-06-18 16:29:21 GMT 48.943405 2.344243 1,300 68 135 -768
2019-06-18 16:29:13 GMT 48.941578 2.337558 1,400 67 130 -704
2019-06-18 16:29:09 GMT 48.940750 2.334313 1,450 67 135 -768
2019-06-18 16:29:04 GMT 48.939102 2.328327 1,550 67 138 -512
2019-06-18 16:29:01 GMT 48.938873 2.327482 1,575 68 134 -704
2019-06-18 16:28:57 GMT 48.937668 2.322813 1,575 68 134 -704
2019-06-18 16:28:52 GMT 48.936539 2.318608 1,650 66 137 -1152
2019-06-18 16:28:45 GMT 48.934799 2.312200 1,725 67 136 -448
2019-06-18 16:28:39 GMT 48.933563 2.307622 1,800 67 138 -704
2019-06-18 16:28:34 GMT 48.930870 2.297516 1,875 67 135 -640
2019-06-18 16:28:28 GMT 48.930870 2.297516 2,025 67 141 -704
2019-06-18 16:28:22 GMT 48.929535 2.292621 2,000 67 137 -768
2019-06-18 16:28:19 GMT 48.928078 2.287035 2,075 67 145 -640
2019-06-18 16:28:16 GMT 48.928078 2.287035 2,075 67 142 -576
2019-06-18 16:28:12 GMT 48.926914 2.282916 2,100 67 146 -768
2019-06-18 16:28:08 GMT 48.925751 2.278579 2,175 67 152 -960
2019-06-18 16:28:03 GMT 48.923538 2.270649 2,300 67 157 -704
2019-06-18 16:27:57 GMT 48.922714 2.267620 2,350 67 155 -448
2019-06-18 16:27:53 GMT 48.921654 2.263690 2,375 67 154 -768
2019-06-18 16:27:49 GMT 48.920399 2.259136 2,450 67 153 -704
2019-06-18 16:27:46 GMT 48.919231 2.254944 2,500 67 154 -704
2019-06-18 16:27:42 GMT 48.918861 2.253571 2,500 67 155 -768
2019-06-18 16:27:38 GMT 48.917633 2.249028 2,575 68 157 -832
2019-06-18 16:27:31 GMT 48.915928 2.242584 2,625 67 156 -832
2019-06-18 16:27:24 GMT 48.913971 2.235501 2,750 67 157 -832
2019-06-18 16:27:20 GMT 48.912903 2.231381 2,775 68 158 -704
2019-06-18 16:27:13 GMT 48.910992 2.224225 2,875 68 156 -704
2019-06-18 16:27:09 GMT 48.909878 2.219961 2,925 68 153 -832
2019-06-18 16:27:05 GMT 48.908478 2.214757 2,975 67 157 -640
2019-06-18 16:26:58 GMT 48.906693 2.208111 3,050 67 157 -320
2019-06-18 16:26:55 GMT 48.905968 2.205361 3,075 67 157 -384
2019-06-18 16:26:52 GMT 48.904999 2.201773 3,075 67 155 0
2019-06-18 16:26:47 GMT 48.903809 2.197336 3,075 67 152 0
2019-06-18 16:26:44 GMT 48.902893 2.193956 3,075 66 158 64
2019-06-18 16:26:41 GMT 48.902023 2.190927 3,075 66 159 0
2019-06-18 16:26:37 GMT 48.900742 2.186279 3,075 66 164 -64
2019-06-18 16:26:33 GMT 48.899448 2.181653 3,100 67 167 -448
2019-06-18 16:26:30 GMT 48.898796 2.179268 3,100 68 168 0
2019-06-18 16:26:25 GMT 48.897537 2.174518 3,075 66 175 -256
2019-06-18 16:26:19 GMT 48.895538 2.166981 3,075 67 174 -128
2019-06-18 16:26:15 GMT 48.892868 2.157546 3,075 67 176 -192
2019-06-18 16:26:11 GMT 48.892868 2.157546 3,100 67 176 -192
2019-06-18 16:26:06 GMT 48.891350 2.151947 3,075 67 177 0
2019-06-18 16:26:01 GMT 48.889755 2.146067 3,075 67 178 -64
2019-06-18 16:25:55 GMT 48.887810 2.138937 3,075 67 179 -64
2019-06-18 16:25:52 GMT 48.887112 2.136407 3,075 67 179 0
2019-06-18 16:25:49 GMT 48.886139 2.132756 3,075 67 179 -128
2019-06-18 16:25:44 GMT 48.884411 2.126360 3,075 68 180 0
2019-06-18 16:25:38 GMT 48.882877 2.120434 3,100 68 180 192
2019-06-18 16:25:30 GMT 48.880268 2.110965 3,075 67 177 64
2019-06-18 16:25:26 GMT 48.879059 2.106556 3,075 67 177 64
2019-06-18 16:25:23 GMT 48.877800 2.102003 3,075 66 179 -128
2019-06-18 16:25:20 GMT 48.876892 2.098882 3,075 66 182 -64
2019-06-18 16:25:16 GMT 48.875244 2.093318 3,075 65 181 0
2019-06-18 16:25:12 GMT 48.874008 2.089163 3,075 66 182 -64
2019-06-18 16:25:09 GMT 48.873192 2.086174 3,100 68 181 128
2019-06-18 16:25:05 GMT 48.871983 2.081692 3,100 68 181 128
2019-06-18 16:25:01 GMT 48.870575 2.075923 3,075 70 179 256
2019-06-18 16:24:58 GMT 48.869980 2.073317 3,075 71 178 -128
2019-06-18 16:24:55 GMT 48.869328 2.070272 3,075 73 179 -128
2019-06-18 16:24:50 GMT 48.868057 2.062683 3,100 78 176 -64
2019-06-18 16:24:47 GMT 48.867699 2.059864 3,075 80 175 192
2019-06-18 16:24:43 GMT 48.867329 2.055744 3,075 82 174 0
2019-06-18 16:24:39 GMT 48.867004 2.049584 3,100 86 173 0
2019-06-18 16:24:34 GMT 48.866768 2.043602 3,150 86 176 -512
2019-06-18 16:24:28 GMT 48.866444 2.036374 3,175 86 177 -832
2019-06-18 16:24:23 GMT 48.866211 2.030447 3,400 87 180 -1024
2019-06-18 16:24:17 GMT 48.865997 2.022329 3,350 87 180 -1024
2019-06-18 16:24:12 GMT 48.865860 2.017541 3,550 87 183 -1024
2019-06-18 16:24:06 GMT 48.865417 2.002981 3,600 87 186 -1088
2019-06-18 16:24:01 GMT 48.865417 2.002981 3,600 87 186 -1088
2019-06-18 16:23:55 GMT 48.865082 1.993948 3,725 86 190 -1088
2019-06-18 16:23:51 GMT 48.864899 1.989652 3,775 86 192 -1024
2019-06-18 16:23:44 GMT 48.864441 1.979129 3,900 86 198 -1024
2019-06-18 16:23:40 GMT 48.864254 1.974648 4,075 72 225 -1984
2019-06-18 16:23:33 GMT 48.863880 1.963156 4,100 87 209 -896
2019-06-18 16:23:30 GMT 48.863342 1.942538 4,950 86 225 -2112
2019-06-18 16:23:20 GMT 48.863342 1.942538 4,375 87 218 -1920
2019-06-18 16:23:10 GMT 48.862858 1.928534 4,675 86 221 -1984
2019-06-18 16:23:07 GMT 48.862747 1.925636 4,750 86 222 -2048
2019-06-18 16:23:00 GMT 48.862114 1.908585 5,050 86 224 -1984
2019-06-18 16:22:49 GMT 48.861053 1.889930 5,450 83 224 -2048
2019-06-18 16:22:45 GMT 48.858719 1.878451 5,800 67 226 -1984
2019-06-18 16:22:38 GMT 48.858719 1.878451 5,775 64 225 -1984
2019-06-18 16:22:27 GMT 48.852524 1.866013 6,300 38 225 -1984
2019-06-18 16:22:23 GMT 48.848286 1.861460 6,250 29 224 -1920
2019-06-18 16:22:16 GMT 48.842102 1.857746 6,475 11 218 -1920
2019-06-18 16:22:12 GMT 48.838943 1.856901 6,875 303 196 -1344
2019-06-18 16:22:05 GMT 48.831623 1.857557 6,800 348 209 -1472
2019-06-18 16:22:02 GMT 48.828232 1.859084 6,875 336 205 -1408
2019-06-18 16:21:54 GMT 48.822418 1.864366 7,050 318 200 -1408
2019-06-18 16:21:50 GMT 48.819469 1.869121 7,175 307 197 -1408
2019-06-18 16:21:46 GMT 48.818024 1.872465 7,225 289 192 -1344
2019-06-18 16:21:42 GMT 48.816490 1.877867 7,325 274 188 -1472
2019-06-18 16:21:38 GMT 48.815781 1.882958 7,375 274 190 -1536
2019-06-18 16:21:33 GMT 48.815376 1.890660 7,575 274 188 -1408
2019-06-18 16:21:28 GMT 48.815140 1.897395 7,675 274 188 -1536
2019-06-18 16:21:22 GMT 48.814911 1.904226 7,825 274 188 -1536
2019-06-18 16:21:16 GMT 48.814583 1.912778 8,050 274 189 -1472
2019-06-18 16:21:12 GMT 48.814350 1.918632 8,100 274 189 -1472
2019-06-18 16:21:05 GMT 48.813931 1.928173 8,275 274 190 -1472
2019-06-18 16:21:00 GMT 48.813721 1.933594 8,350 274 190 -1536
2019-06-18 16:20:54 GMT 48.813374 1.942845 8,550 274 191 -1536
2019-06-18 16:20:49 GMT 48.813141 1.948483 8,650 274 192 -1536
2019-06-18 16:20:45 GMT 48.812954 1.953543 8,800 274 192 -1536
2019-06-18 16:20:42 GMT 48.812767 1.958168 8,825 274 192 -1536
2019-06-18 16:20:39 GMT 48.812256 1.969863 8,975 275 193 -1536
2019-06-18 16:20:34 GMT 48.812023 1.973564 9,125 275 194 -1472
2019-06-18 16:20:27 GMT 48.811695 1.979491 9,225 276 194 -1472
2019-06-18 16:20:23 GMT 48.811462 1.983827 9,275 275 195 -1472
2019-06-18 16:20:20 GMT 48.811138 1.989031 9,400 276 196 -1536
2019-06-18 16:20:16 GMT 48.810905 1.993151 9,475 276 196 -1472
2019-06-18 16:20:12 GMT 48.810207 2.003921 9,625 276 198 -1536
2019-06-18 16:20:09 GMT 48.810207 2.003921 9,675 276 199 -1472
2019-06-18 16:20:06 GMT 48.809883 2.008330 9,750 277 200 -1536
2019-06-18 16:20:01 GMT 48.809509 2.013678 10,000 277 203 -1536
2019-06-18 16:19:57 GMT 48.808811 2.022930 10,025 277 202 -1536
2019-06-18 16:19:48 GMT 48.808022 2.033410 10,200 277 205 -1536
2019-06-18 16:19:45 GMT 48.807770 2.037260 10,250 277 206 -1536
2019-06-18 16:19:41 GMT 48.807312 2.043598 10,375 277 206 -1536
2019-06-18 16:19:38 GMT 48.806992 2.047894 10,450 277 208 -1536
2019-06-18 16:19:34 GMT 48.806438 2.056250 10,600 277 211 -1536
2019-06-18 16:19:28 GMT 48.805984 2.062613 10,700 277 213 -1536
2019-06-18 16:19:23 GMT 48.805527 2.068528 10,800 277 215 -1472
2019-06-18 16:19:20 GMT 48.805069 2.074585 10,900 277 217 -1536
2019-06-18 16:19:16 GMT 48.804295 2.085306 11,125 277 218 -1984
2019-06-18 16:19:12 GMT 48.804295 2.085306 11,125 277 218 -1984
2019-06-18 16:19:09 GMT 48.803833 2.091276 11,275 277 219 -1984
2019-06-18 16:19:05 GMT 48.803455 2.096293 11,450 277 219 -1984
2019-06-18 16:19:00 GMT 48.802689 2.106488 11,600 277 220 -1984
2019-06-18 16:18:55 GMT 48.802368 2.111417 11,750 276 221 -1984
2019-06-18 16:18:51 GMT 48.801922 2.118048 11,925 276 221 -1984
2019-06-18 16:18:48 GMT 48.801689 2.121735 11,925 276 221 -1984
2019-06-18 16:18:45 GMT 48.801361 2.126840 12,250 275 224 -1984
2019-06-18 16:18:41 GMT 48.800949 2.134306 12,650 275 231 -2048
2019-06-18 16:18:38 GMT 48.800629 2.140292 12,325 275 223 -1984
2019-06-18 16:18:33 GMT 48.800354 2.145292 12,650 275 224 -1984
2019-06-18 16:18:29 GMT 48.799988 2.153109 12,550 274 225 -1984
2019-06-18 16:18:26 GMT 48.799713 2.159729 12,625 274 225 -1984
2019-06-18 16:18:23 GMT 48.799438 2.165715 12,850 274 226 -1984
2019-06-18 16:18:20 GMT 48.799255 2.170504 12,925 274 227 -1984
2019-06-18 16:18:13 GMT 48.798889 2.179096 13,125 274 234 -1984
2019-06-18 16:18:07 GMT 48.798569 2.186420 13,225 274 229 -2048
2019-06-18 16:18:03 GMT 48.797825 2.201747 13,575 274 232 -1984
2019-06-18 16:17:58 GMT 48.797825 2.201747 13,675 274 232 -1984
2019-06-18 16:17:55 GMT 48.797638 2.206011 13,675 274 232 -1984
2019-06-18 16:17:51 GMT 48.797333 2.212689 13,825 274 234 -1984
2019-06-18 16:17:47 GMT 48.797012 2.220506 14,000 274 235 -1984
2019-06-18 16:17:40 GMT 48.796520 2.232248 14,225 274 237 -1984
2019-06-18 16:17:37 GMT 48.796417 2.235718 14,300 274 237 -1984
2019-06-18 16:17:34 GMT 48.796234 2.240366 14,350 274 238 -1984
2019-06-18 16:17:29 GMT 48.795868 2.250535 14,550 274 240 -1984
2019-06-18 16:17:26 GMT 48.795685 2.255437 14,700 274 241 -2048
2019-06-18 16:17:23 GMT 48.795593 2.258817 14,750 274 242 -2048
2019-06-18 16:17:20 GMT 48.795403 2.264412 15,500 274 243 -2048
2019-06-18 16:17:16 GMT 48.795170 2.270917 14,975 274 244 -1984
2019-06-18 16:17:13 GMT 48.794952 2.276564 15,100 274 245 -1984
2019-06-18 16:17:08 GMT 48.794540 2.284804 15,225 276 247 -2048
2019-06-18 16:17:05 GMT 48.793900 2.293114 16,750 285 255 -1920
2019-06-18 16:16:56 GMT 48.789726 2.310960 15,675 296 262 -1984
2019-06-18 16:16:53 GMT 48.789726 2.310960 15,775 301 265 -2048
2019-06-18 16:16:50 GMT 48.787170 2.317129 15,900 303 268 -2048
2019-06-18 16:16:46 GMT 48.785385 2.321214 16,600 305 279 -1984
2019-06-18 16:16:43 GMT 48.783554 2.325299 16,075 305 273 -1920
2019-06-18 16:16:40 GMT 48.781204 2.330547 16,175 305 274 -1984
2019-06-18 16:16:36 GMT 48.778412 2.336619 16,600 305 280 -1984
2019-06-18 16:16:32 GMT 48.774876 2.344352 16,475 305 283 -1920
2019-06-18 16:16:26 GMT 48.770462 2.354032 16,675 305 288 -1984
2019-06-18 16:16:22 GMT 48.766869 2.361844 16,825 305 293 -1984
2019-06-18 16:16:19 GMT 48.761421 2.373842 17,025 305 300 -1984
2019-06-18 16:16:14 GMT 48.761421 2.373842 17,025 305 299 -1984
2019-06-18 16:16:11 GMT 48.759232 2.378685 17,225 305 305 -2112
2019-06-18 16:16:08 GMT 48.756535 2.384756 17,275 304 307 -2176
2019-06-18 16:16:04 GMT 48.753433 2.391780 17,375 303 313 -1088
2019-06-18 16:16:00 GMT 48.749641 2.400874 17,425 301 316 -128
2019-06-18 16:15:57 GMT 48.748123 2.404949 17,425 299 315 256
2019-06-18 16:15:54 GMT 48.746109 2.410795 17,400 296 313 704
2019-06-18 16:15:50 GMT 48.742428 2.424220 17,275 290 309 1344
2019-06-18 16:15:47 GMT 48.742428 2.424220 17,250 288 308 1344
2019-06-18 16:15:44 GMT 48.740891 2.432098 17,200 283 308 1344
2019-06-18 16:15:39 GMT 48.739929 2.441289 16,525 279 309 1344
2019-06-18 16:15:36 GMT 48.739727 2.446699 17,025 271 313 1408
2019-06-18 16:15:33 GMT 48.739975 2.453965 16,975 265 318 1280
2019-06-18 16:15:28 GMT 48.741077 2.465346 16,850 260 326 1920
2019-06-18 16:15:25 GMT 48.742332 2.474454 16,675 258 335 1920
2019-06-18 16:15:22 GMT 48.744057 2.486380 16,475 258 336 2752
2019-06-18 16:15:19 GMT 48.744057 2.486380 16,475 258 336 2752
2019-06-18 16:15:15 GMT 48.745743 2.498122 16,275 258 337 1984
2019-06-18 16:15:12 GMT 48.747410 2.509870 16,200 258 337 1984
2019-06-18 16:15:09 GMT 48.747410 2.509870 16,125 258 337 1920
2019-06-18 16:15:03 GMT 48.749405 2.523898 15,850 258 336 1792
2019-06-18 16:15:00 GMT 48.750294 2.530108 15,750 258 335 1536
2019-06-18 16:14:57 GMT 48.752296 2.543913 15,650 258 332 1984
2019-06-18 16:14:51 GMT 48.753323 2.551213 15,650 258 332 1984
2019-06-18 16:14:47 GMT 48.754532 2.559603 15,475 258 332 1856
2019-06-18 16:14:39 GMT 48.757137 2.578029 15,200 258 332 1984
2019-06-18 16:14:35 GMT 48.758286 2.585942 15,100 258 331 1984
2019-06-18 16:14:29 GMT 48.760712 2.603126 14,875 258 329 1792
2019-06-18 16:14:24 GMT 48.763283 2.621323 14,650 258 327 1664
2019-06-18 16:14:20 GMT 48.763283 2.621323 14,600 258 326 1536
2019-06-18 16:14:17 GMT 48.764465 2.629606 14,600 258 326 1536
2019-06-18 16:14:13 GMT 48.765518 2.636719 14,475 258 323 1152
2019-06-18 16:14:08 GMT 48.767395 2.649888 14,400 258 318 576
2019-06-18 16:14:05 GMT 48.768219 2.655945 14,375 258 314 448
2019-06-18 16:14:02 GMT 48.768917 2.660860 14,350 258 312 448
2019-06-18 16:13:58 GMT 48.770004 2.668269 14,325 258 305 640
2019-06-18 16:13:55 GMT 48.770920 2.674889 14,300 258 303 768
2019-06-18 16:13:52 GMT 48.771881 2.681509 14,250 258 298 768
2019-06-18 16:13:45 GMT 48.773758 2.694975 14,175 258 288 704
2019-06-18 16:13:42 GMT 48.774857 2.702566 14,125 258 230 1344
2019-06-18 16:13:34 GMT 48.776688 2.715454 14,075 259 270 640
2019-06-18 16:13:29 GMT 48.778133 2.725766 14,025 258 261 512
2019-06-18 16:13:23 GMT 48.779903 2.738198 13,975 258 236 704
2019-06-18 16:13:20 GMT 48.780533 2.742638 13,975 258 241 512
2019-06-18 16:13:13 GMT 48.781815 2.751864 13,825 259 226 1792
2019-06-18 16:13:10 GMT 48.782417 2.755978 13,750 258 219 3136
2019-06-18 16:13:07 GMT 48.783234 2.761935 13,550 258 219 3136
2019-06-18 16:13:03 GMT 48.783966 2.767005 13,300 256 218 3456
2019-06-18 16:13:00 GMT 48.784744 2.771794 13,175 254 218 3392
2019-06-18 16:12:57 GMT 48.785999 2.777373 12,950 248 217 3520
2019-06-18 16:12:52 GMT 48.788040 2.784189 12,650 242 216 3584
2019-06-18 16:12:49 GMT 48.788841 2.786480 12,425 212 221 5120
2019-06-18 16:12:45 GMT 48.791214 2.792045 12,300 233 216 3456
2019-06-18 16:12:42 GMT 48.793259 2.796021 11,900 228 216 3520
2019-06-18 16:12:38 GMT 48.795547 2.799753 11,900 225 216 3648
2019-06-18 16:12:34 GMT 48.799164 2.804612 11,575 217 217 4288
2019-06-18 16:12:31 GMT 48.801453 2.807148 11,375 215 219 4736
2019-06-18 16:12:28 GMT 48.803970 2.809683 11,125 212 221 5120
2019-06-18 16:12:23 GMT 48.809830 2.814542 10,575 206 231 5056
2019-06-18 16:12:19 GMT 48.811615 2.815740 10,425 202 236 4800
2019-06-18 16:12:16 GMT 48.814583 2.817487 10,175 201 237 4800
2019-06-18 16:12:11 GMT 48.821960 2.820035 9,600 186 251 5440
2019-06-18 16:12:07 GMT 48.825615 2.820162 9,475 181 256 5440
2019-06-18 16:11:59 GMT 48.835922 2.816655 8,625 157 279 3520
2019-06-18 16:11:56 GMT 48.838882 2.814741 8,550 156 280 3456
2019-06-18 16:11:49 GMT 48.846519 2.809609 8,175 155 281 3456
2019-06-18 16:11:46 GMT 48.851498 2.806212 7,950 155 282 3520
2019-06-18 16:11:37 GMT 48.862488 2.798767 7,450 156 282 2240
2019-06-18 16:11:34 GMT 48.864304 2.797570 7,425 156 282 2112
2019-06-18 16:11:27 GMT 48.873520 2.791539 7,175 156 280 1728
2019-06-18 16:11:24 GMT 48.877056 2.789226 7,100 157 277 1664
2019-06-18 16:11:14 GMT 48.889534 2.781203 6,825 156 275 1600
2019-06-18 16:11:11 GMT 48.896328 2.776867 6,675 158 270 1664
2019-06-18 16:11:05 GMT 48.898842 2.775277 6,600 157 271 1600
2019-06-18 16:11:01 GMT 48.903267 2.772602 6,425 158 270 1664
2019-06-18 16:10:53 GMT 48.913971 2.766169 6,250 158 269 1536
2019-06-18 16:10:49 GMT 48.917084 2.764329 6,175 158 267 1408
2019-06-18 16:10:45 GMT 48.922073 2.761471 6,075 159 268 1408
2019-06-18 16:10:41 GMT 48.927658 2.758291 5,975 159 268 1408
2019-06-18 16:10:35 GMT 48.933662 2.754677 5,850 156 266 1536
2019-06-18 16:10:29 GMT 48.939926 2.749892 5,700 144 266 1536
2019-06-18 16:10:24 GMT 48.945740 2.742990 5,550 136 267 1536
2019-06-18 16:10:19 GMT 48.949677 2.736300 5,425 124 265 1664
2019-06-18 16:10:16 GMT 48.951492 2.732054 5,350 118 264 1600
2019-06-18 16:10:08 GMT 48.955261 2.717849 5,150 101 266 1024
2019-06-18 16:10:03 GMT 48.956242 2.709070 5,100 99 267 832
2019-06-18 16:09:59 GMT 48.956955 2.699115 5,075 95 270 64
2019-06-18 16:09:55 GMT 48.957314 2.694036 5,075 95 270 0
2019-06-18 16:09:47 GMT 48.958244 2.680086 5,100 95 269 0
2019-06-18 16:09:43 GMT 48.958801 2.672135 5,100 96 270 64
2019-06-18 16:09:39 GMT 48.959408 2.663462 5,075 95 270 64
2019-06-18 16:09:36 GMT 48.960388 2.648902 5,050 95 271 256
2019-06-18 16:09:27 GMT 48.960896 2.641489 5,050 95 270 384
2019-06-18 16:09:24 GMT 48.961304 2.635240 4,875 95 269 768
2019-06-18 16:09:16 GMT 48.962311 2.620521 4,875 95 269 1024
2019-06-18 16:09:13 GMT 48.962631 2.615662 4,875 95 269 1024
2019-06-18 16:09:04 GMT 48.964050 2.595802 4,650 96 266 960
2019-06-18 16:08:58 GMT 48.964809 2.585256 4,575 95 260 1024
2019-06-18 16:08:55 GMT 48.965103 2.580731 4,550 95 257 960
2019-06-18 16:08:51 GMT 48.965553 2.573114 4,475 95 249 1024
2019-06-18 16:08:43 GMT 48.966438 2.561332 4,375 96 238 960
2019-06-18 16:08:40 GMT 48.967117 2.554462 4,150 101 212 1088
2019-06-18 16:08:34 GMT 48.968079 2.547208 4,175 101 213 1088
2019-06-18 16:08:31 GMT 48.968674 2.542490 4,125 100 207 960
2019-06-18 16:08:27 GMT 48.969315 2.536222 4,050 95 202 1280
2019-06-18 16:08:24 GMT 48.969498 2.530870 3,950 85 196 2304
2019-06-18 16:08:21 GMT 48.969360 2.526362 3,750 84 193 1984
2019-06-18 16:08:16 GMT 48.968994 2.519883 3,650 85 188 1792
2019-06-18 16:08:12 GMT 48.968674 2.514672 3,525 84 182 2112
2019-06-18 16:08:09 GMT 48.968536 2.511925 3,450 84 180 2368
2019-06-18 16:08:02 GMT 48.967972 2.502425 3,050 85 173 2944
2019-06-18 16:07:58 GMT 48.967834 2.499462 2,925 85 173 2880
2019-06-18 16:07:51 GMT 48.967300 2.490587 2,625 84 165 2304
2019-06-18 16:07:47 GMT 48.966995 2.486524 2,500 84 161 2048
2019-06-18 16:07:42 GMT 48.966568 2.479248 2,275 83 135 2496
2019-06-18 16:07:36 GMT 48.966293 2.474459 2,150 87 134 2816
2019-06-18 16:07:28 GMT 48.965652 2.466008 1,825 85 133 2880
2019-06-18 16:07:24 GMT 48.965515 2.463755 1,700 85 133 2880
2019-06-18 16:07:18 GMT 48.965286 2.457909 1,400 87 135 3072
2019-06-18 16:07:13 GMT 48.965057 2.452627 1,125 87 135 3072

Making use of Plane Finder data

You are free to use the raw flight data, aircraft information and images provided in this report for your own purposes provided the data is correctly attributed to Plane Finder. We ask that you please credit Plane Finder and link to planefinder.net in close proximity to the content.

Optionally one of the following logos (no smaller then 150x24px) can be used and must link to planefinder.net

Embedding the Plane Finder map

You are welcome to embed the Plane Finder playback map on your website to offer visitors a more interactive experience. We suggest using the following HTML code:

<iframe src="//planefinder.net/data/report/JFA86H-LX-PCB-7700-squawk-2019-06-18/map" width="800" height="600" seamless="seamless"></iframe>

Where our data comes from

Plane Finder has a global network of data feeds and antenna radars that receive data broadcast directly from aircraft. The primary technologies used are ADS-B and MLAT. We also show feeds from the FAA and a FLARM glider feed.

Click here to find out more about the Plane Finder network.

How we collect our data